sensor_id;sensor_type;location;lat;lon;timestamp;pressure;altitude;pressure_sealevel;temperature;humidity
77482;BME280;66582;43.004;-75.010;2023-03-23T00:00:05;100589.00;;;7.80;43.90
77482;BME280;66582;43.004;-75.010;2023-03-23T00:02:31;100595.70;;;7.59;45.78
77482;BME280;66582;43.004;-75.010;2023-03-23T00:04:56;100607.68;;;7.78;46.39
77482;BME280;66582;43.004;-75.010;2023-03-23T00:07:21;100616.41;;;7.48;44.90
77482;BME280;66582;43.004;-75.010;2023-03-23T00:09:45;100610.42;;;6.40;48.20
77482;BME280;66582;43.004;-75.010;2023-03-23T00:12:10;100620.70;;;6.45;50.33
77482;BME280;66582;43.004;-75.010;2023-03-23T00:14:36;100630.51;;;5.43;50.99
77482;BME280;66582;43.004;-75.010;2023-03-23T00:17:01;100629.05;;;7.34;48.41
77482;BME280;66582;43.004;-75.010;2023-03-23T00:19:27;100636.48;;;6.14;49.03
77482;BME280;66582;43.004;-75.010;2023-03-23T00:21:52;100631.12;;;5.91;49.93
77482;BME280;66582;43.004;-75.010;2023-03-23T00:24:19;100618.70;;;6.34;49.16
77482;BME280;66582;43.004;-75.010;2023-03-23T00:26:45;100619.58;;;6.14;47.86
77482;BME280;66582;43.004;-75.010;2023-03-23T00:29:13;100618.73;;;5.85;50.20
77482;BME280;66582;43.004;-75.010;2023-03-23T00:31:34;100610.55;;;7.04;47.26
77482;BME280;66582;43.004;-75.010;2023-03-23T00:34:01;100603.62;;;6.44;47.90
77482;BME280;66582;43.004;-75.010;2023-03-23T00:36:25;100586.16;;;6.38;46.76
77482;BME280;66582;43.004;-75.010;2023-03-23T00:38:51;100575.76;;;5.69;51.49
77482;BME280;66582;43.004;-75.010;2023-03-23T00:41:17;100584.87;;;5.27;54.67
77482;BME280;66582;43.004;-75.010;2023-03-23T00:43:41;100574.34;;;6.50;49.62
77482;BME280;66582;43.004;-75.010;2023-03-23T00:46:07;100581.35;;;5.87;50.74
77482;BME280;66582;43.004;-75.010;2023-03-23T00:48:35;100584.44;;;6.60;49.19
77482;BME280;66582;43.004;-75.010;2023-03-23T00:50:57;100592.35;;;7.04;47.21
77482;BME280;66582;43.004;-75.010;2023-03-23T00:53:23;100593.91;;;7.17;48.80
77482;BME280;66582;43.004;-75.010;2023-03-23T00:55:49;100589.37;;;8.53;43.90
77482;BME280;66582;43.004;-75.010;2023-03-23T00:58:15;100581.16;;;7.08;46.07
77482;BME280;66582;43.004;-75.010;2023-03-23T01:00:40;100565.47;;;7.10;47.84
77482;BME280;66582;43.004;-75.010;2023-03-23T01:03:05;100563.44;;;5.87;50.02
77482;BME280;66582;43.004;-75.010;2023-03-23T01:05:34;100556.69;;;6.13;49.84
77482;BME280;66582;43.004;-75.010;2023-03-23T01:07:56;100556.80;;;6.25;49.49
77482;BME280;66582;43.004;-75.010;2023-03-23T01:10:22;100561.94;;;6.34;51.26
77482;BME280;66582;43.004;-75.010;2023-03-23T01:12:47;100567.91;;;6.72;49.49
77482;BME280;66582;43.004;-75.010;2023-03-23T01:15:16;100559.83;;;7.64;47.41
77482;BME280;66582;43.004;-75.010;2023-03-23T01:17:39;100559.96;;;8.46;45.91
77482;BME280;66582;43.004;-75.010;2023-03-23T01:20:04;100566.40;;;7.66;45.57
77482;BME280;66582;43.004;-75.010;2023-03-23T01:22:31;100564.37;;;7.23;45.95
77482;BME280;66582;43.004;-75.010;2023-03-23T01:24:53;100568.52;;;5.56;50.05
77482;BME280;66582;43.004;-75.010;2023-03-23T01:27:19;100567.50;;;5.61;51.69
77482;BME280;66582;43.004;-75.010;2023-03-23T01:29:44;100558.68;;;5.88;50.34
77482;BME280;66582;43.004;-75.010;2023-03-23T01:32:09;100559.40;;;6.22;49.70
77482;BME280;66582;43.004;-75.010;2023-03-23T01:34:36;100563.70;;;6.04;50.63
77482;BME280;66582;43.004;-75.010;2023-03-23T01:37:01;100560.93;;;6.38;49.28
77482;BME280;66582;43.004;-75.010;2023-03-23T01:39:26;100553.16;;;6.40;49.00
77482;BME280;66582;43.004;-75.010;2023-03-23T01:41:52;100554.76;;;6.83;48.31
77482;BME280;66582;43.004;-75.010;2023-03-23T01:46:43;100547.58;;;7.97;46.21
77482;BME280;66582;43.004;-75.010;2023-03-23T01:49:10;100550.13;;;7.25;47.84
77482;BME280;66582;43.004;-75.010;2023-03-23T01:51:36;100542.53;;;8.19;46.22
77482;BME280;66582;43.004;-75.010;2023-03-23T01:54:01;100512.16;;;9.04;44.80
77482;BME280;66582;43.004;-75.010;2023-03-23T01:56:26;100525.16;;;6.26;48.42
77482;BME280;66582;43.004;-75.010;2023-03-23T01:58:50;100531.43;;;6.39;50.48
77482;BME280;66582;43.004;-75.010;2023-03-23T02:01:16;100534.28;;;5.28;53.41
77482;BME280;66582;43.004;-75.010;2023-03-23T02:03:44;100539.32;;;4.83;54.66
77482;BME280;66582;43.004;-75.010;2023-03-23T02:06:07;100522.62;;;6.68;49.41
77482;BME280;66582;43.004;-75.010;2023-03-23T02:08:32;100512.73;;;8.71;45.12
77482;BME280;66582;43.004;-75.010;2023-03-23T02:10:57;100518.79;;;6.52;48.48
77482;BME280;66582;43.004;-75.010;2023-03-23T02:13:23;100514.26;;;7.33;47.92
77482;BME280;66582;43.004;-75.010;2023-03-23T02:15:58;100520.45;;;7.76;46.31
77482;BME280;66582;43.004;-75.010;2023-03-23T02:18:23;100519.67;;;9.12;43.84
77482;BME280;66582;43.004;-75.010;2023-03-23T02:20:52;100516.91;;;7.00;46.43
77482;BME280;66582;43.004;-75.010;2023-03-23T02:23:18;100517.96;;;8.28;45.55
77482;BME280;66582;43.004;-75.010;2023-03-23T02:28:13;100508.01;;;8.05;45.33
77482;BME280;66582;43.004;-75.010;2023-03-23T02:30:31;100504.62;;;7.28;46.53
77482;BME280;66582;43.004;-75.010;2023-03-23T02:35:18;100512.54;;;6.80;48.39
77482;BME280;66582;43.004;-75.010;2023-03-23T02:37:41;100513.14;;;7.34;49.52
77482;BME280;66582;43.004;-75.010;2023-03-23T02:40:06;100513.80;;;8.73;45.84
77482;BME280;66582;43.004;-75.010;2023-03-23T02:42:30;100511.03;;;6.48;49.93
77482;BME280;66582;43.004;-75.010;2023-03-23T02:44:55;100487.17;;;7.00;48.57
77482;BME280;66582;43.004;-75.010;2023-03-23T02:47:22;100473.46;;;5.97;50.96
77482;BME280;66582;43.004;-75.010;2023-03-23T02:49:48;100469.45;;;7.06;47.93
77482;BME280;66582;43.004;-75.010;2023-03-23T02:52:12;100476.86;;;6.46;49.48
77482;BME280;66582;43.004;-75.010;2023-03-23T02:54:36;100475.89;;;6.28;50.42
77482;BME280;66582;43.004;-75.010;2023-03-23T02:57:01;100476.32;;;5.02;53.60
77482;BME280;66582;43.004;-75.010;2023-03-23T02:59:26;100477.96;;;4.82;54.78
77482;BME280;66582;43.004;-75.010;2023-03-23T03:01:58;100475.47;;;6.64;51.65
77482;BME280;66582;43.004;-75.010;2023-03-23T03:04:20;100477.80;;;5.75;51.99
77482;BME280;66582;43.004;-75.010;2023-03-23T03:06:50;100464.35;;;6.21;51.63
77482;BME280;66582;43.004;-75.010;2023-03-23T03:09:13;100465.46;;;6.20;50.84
77482;BME280;66582;43.004;-75.010;2023-03-23T03:11:35;100468.67;;;6.60;50.51
77482;BME280;66582;43.004;-75.010;2023-03-23T03:14:03;100474.03;;;6.57;49.52
77482;BME280;66582;43.004;-75.010;2023-03-23T03:16:29;100472.68;;;6.39;51.11
77482;BME280;66582;43.004;-75.010;2023-03-23T03:18:54;100472.81;;;6.39;49.98
77482;BME280;66582;43.004;-75.010;2023-03-23T03:21:17;100470.61;;;4.74;55.11
77482;BME280;66582;43.004;-75.010;2023-03-23T03:23:43;100462.96;;;4.30;57.32
77482;BME280;66582;43.004;-75.010;2023-03-23T03:26:07;100447.60;;;4.75;56.38
77482;BME280;66582;43.004;-75.010;2023-03-23T03:28:36;100445.14;;;5.94;52.96
77482;BME280;66582;43.004;-75.010;2023-03-23T03:31:00;100451.41;;;5.26;52.70
77482;BME280;66582;43.004;-75.010;2023-03-23T03:33:23;100450.64;;;7.20;49.81
77482;BME280;66582;43.004;-75.010;2023-03-23T03:35:49;100461.10;;;7.91;47.59
77482;BME280;66582;43.004;-75.010;2023-03-23T03:38:15;100469.42;;;6.77;51.22
77482;BME280;66582;43.004;-75.010;2023-03-23T03:40:41;100472.55;;;6.83;50.64
77482;BME280;66582;43.004;-75.010;2023-03-23T03:43:06;100474.60;;;6.42;51.98
77482;BME280;66582;43.004;-75.010;2023-03-23T03:45:31;100465.39;;;6.24;52.14
77482;BME280;66582;43.004;-75.010;2023-03-23T03:47:57;100460.85;;;4.81;54.14
77482;BME280;66582;43.004;-75.010;2023-03-23T03:50:21;100465.71;;;4.69;56.30
77482;BME280;66582;43.004;-75.010;2023-03-23T03:52:46;100460.65;;;4.97;56.05
77482;BME280;66582;43.004;-75.010;2023-03-23T03:55:12;100453.06;;;5.37;55.26
77482;BME280;66582;43.004;-75.010;2023-03-23T03:57:37;100454.89;;;5.15;55.96
77482;BME280;66582;43.004;-75.010;2023-03-23T04:00:04;100457.75;;;6.02;54.02
77482;BME280;66582;43.004;-75.010;2023-03-23T04:02:28;100450.77;;;7.64;50.39
77482;BME280;66582;43.004;-75.010;2023-03-23T04:04:52;100441.76;;;8.23;47.70
77482;BME280;66582;43.004;-75.010;2023-03-23T04:07:20;100435.50;;;7.48;49.62
77482;BME280;66582;43.004;-75.010;2023-03-23T04:09:46;100435.28;;;6.61;52.06
77482;BME280;66582;43.004;-75.010;2023-03-23T04:12:10;100445.22;;;6.05;52.89
77482;BME280;66582;43.004;-75.010;2023-03-23T04:14:35;100446.61;;;6.24;52.95
77482;BME280;66582;43.004;-75.010;2023-03-23T04:17:00;100451.69;;;5.66;54.68
77482;BME280;66582;43.004;-75.010;2023-03-23T04:19:25;100445.45;;;6.94;50.39
77482;BME280;66582;43.004;-75.010;2023-03-23T04:21:51;100449.74;;;6.78;51.47
77482;BME280;66582;43.004;-75.010;2023-03-23T04:24:16;100449.46;;;8.16;49.13
77482;BME280;66582;43.004;-75.010;2023-03-23T04:26:42;100444.15;;;6.72;50.92
77482;BME280;66582;43.004;-75.010;2023-03-23T04:29:08;100439.59;;;6.32;50.65
77482;BME280;66582;43.004;-75.010;2023-03-23T04:31:32;100436.71;;;7.55;49.12
77482;BME280;66582;43.004;-75.010;2023-03-23T04:33:58;100427.90;;;6.23;51.24
77482;BME280;66582;43.004;-75.010;2023-03-23T04:36:24;100433.00;;;4.65;56.06
77482;BME280;66582;43.004;-75.010;2023-03-23T04:38:49;100442.56;;;3.68;58.67
77482;BME280;66582;43.004;-75.010;2023-03-23T04:41:14;100433.99;;;6.99;52.50
77482;BME280;66582;43.004;-75.010;2023-03-23T04:43:44;100433.32;;;7.02;50.68
77482;BME280;66582;43.004;-75.010;2023-03-23T04:46:05;100432.01;;;5.22;54.63
77482;BME280;66582;43.004;-75.010;2023-03-23T04:48:31;100425.47;;;4.05;58.32
77482;BME280;66582;43.004;-75.010;2023-03-23T04:50:56;100418.43;;;4.87;58.66
77482;BME280;66582;43.004;-75.010;2023-03-23T04:53:21;100413.78;;;5.63;55.99
77482;BME280;66582;43.004;-75.010;2023-03-23T04:55:48;100410.74;;;6.18;52.72
77482;BME280;66582;43.004;-75.010;2023-03-23T04:58:11;100420.50;;;4.29;57.39
77482;BME280;66582;43.004;-75.010;2023-03-23T05:00:36;100396.87;;;4.51;57.77
77482;BME280;66582;43.004;-75.010;2023-03-23T05:03:02;100410.07;;;3.13;62.69
77482;BME280;66582;43.004;-75.010;2023-03-23T05:05:27;100399.23;;;4.28;59.24
77482;BME280;66582;43.004;-75.010;2023-03-23T05:07:53;100389.33;;;6.01;54.90
77482;BME280;66582;43.004;-75.010;2023-03-23T05:10:18;100403.09;;;6.39;54.56
77482;BME280;66582;43.004;-75.010;2023-03-23T05:12:44;100393.35;;;7.27;50.53
77482;BME280;66582;43.004;-75.010;2023-03-23T05:15:11;100386.60;;;7.00;51.11
77482;BME280;66582;43.004;-75.010;2023-03-23T05:17:35;100373.97;;;6.00;52.50
77482;BME280;66582;43.004;-75.010;2023-03-23T05:20:00;100384.04;;;5.45;54.83
77482;BME280;66582;43.004;-75.010;2023-03-23T05:22:27;100375.04;;;5.07;55.95
77482;BME280;66582;43.004;-75.010;2023-03-23T05:24:50;100364.92;;;4.61;57.81
77482;BME280;66582;43.004;-75.010;2023-03-23T05:27:15;100354.60;;;4.82;57.51
77482;BME280;66582;43.004;-75.010;2023-03-23T05:29:41;100335.86;;;5.17;56.70
77482;BME280;66582;43.004;-75.010;2023-03-23T05:32:06;100339.17;;;4.01;61.43
77482;BME280;66582;43.004;-75.010;2023-03-23T05:34:31;100329.27;;;4.76;59.11
77482;BME280;66582;43.004;-75.010;2023-03-23T05:36:56;100321.40;;;5.55;56.87
77482;BME280;66582;43.004;-75.010;2023-03-23T05:39:22;100315.29;;;6.54;53.75
77482;BME280;66582;43.004;-75.010;2023-03-23T05:41:47;100310.61;;;5.88;54.68
77482;BME280;66582;43.004;-75.010;2023-03-23T05:44:12;100302.95;;;6.24;54.44
77482;BME280;66582;43.004;-75.010;2023-03-23T05:46:37;100310.64;;;6.16;53.56
77482;BME280;66582;43.004;-75.010;2023-03-23T05:49:03;100307.65;;;6.74;51.48
77482;BME280;66582;43.004;-75.010;2023-03-23T05:51:28;100315.43;;;5.45;56.15
77482;BME280;66582;43.004;-75.010;2023-03-23T05:53:53;100309.02;;;7.24;51.81
77482;BME280;66582;43.004;-75.010;2023-03-23T05:56:19;100295.32;;;7.89;49.57
77482;BME280;66582;43.004;-75.010;2023-03-23T05:58:44;100282.85;;;8.24;48.15
77482;BME280;66582;43.004;-75.010;2023-03-23T06:01:10;100282.34;;;5.64;53.04
77482;BME280;66582;43.004;-75.010;2023-03-23T06:03:35;100272.40;;;5.62;53.29
77482;BME280;66582;43.004;-75.010;2023-03-23T06:06:00;100260.37;;;5.18;55.20
77482;BME280;66582;43.004;-75.010;2023-03-23T06:08:25;100247.97;;;5.77;53.92
77482;BME280;66582;43.004;-75.010;2023-03-23T06:10:51;100245.60;;;5.40;55.00
77482;BME280;66582;43.004;-75.010;2023-03-23T06:13:15;100238.02;;;6.59;52.83
77482;BME280;66582;43.004;-75.010;2023-03-23T06:15:41;100245.11;;;7.00;51.57
77482;BME280;66582;43.004;-75.010;2023-03-23T06:18:06;100257.99;;;6.25;53.82
77482;BME280;66582;43.004;-75.010;2023-03-23T06:20:32;100258.62;;;6.40;52.74
77482;BME280;66582;43.004;-75.010;2023-03-23T06:22:56;100255.41;;;6.91;52.22
77482;BME280;66582;43.004;-75.010;2023-03-23T06:25:29;100257.91;;;6.44;52.80
77482;BME280;66582;43.004;-75.010;2023-03-23T06:27:47;100251.03;;;7.40;50.26
77482;BME280;66582;43.004;-75.010;2023-03-23T06:30:13;100253.66;;;6.76;51.00
77482;BME280;66582;43.004;-75.010;2023-03-23T06:32:38;100253.67;;;7.37;51.53
77482;BME280;66582;43.004;-75.010;2023-03-23T06:35:06;100237.42;;;6.14;51.79
77482;BME280;66582;43.004;-75.010;2023-03-23T06:37:29;100227.21;;;4.61;54.64
77482;BME280;66582;43.004;-75.010;2023-03-23T06:39:54;100224.28;;;4.98;56.71
77482;BME280;66582;43.004;-75.010;2023-03-23T06:42:21;100223.34;;;5.78;54.22
77482;BME280;66582;43.004;-75.010;2023-03-23T06:44:45;100224.39;;;6.71;51.82
77482;BME280;66582;43.004;-75.010;2023-03-23T06:47:11;100221.89;;;4.60;56.37
77482;BME280;66582;43.004;-75.010;2023-03-23T06:49:35;100211.99;;;5.56;55.36
77482;BME280;66582;43.004;-75.010;2023-03-23T06:52:02;100205.52;;;5.41;55.88
77482;BME280;66582;43.004;-75.010;2023-03-23T06:54:26;100201.40;;;6.35;52.35
77482;BME280;66582;43.004;-75.010;2023-03-23T06:56:52;100203.36;;;4.97;56.89
77482;BME280;66582;43.004;-75.010;2023-03-23T06:59:17;100194.69;;;6.36;54.09
77482;BME280;66582;43.004;-75.010;2023-03-23T07:01:42;100185.85;;;6.83;51.98
77482;BME280;66582;43.004;-75.010;2023-03-23T07:04:07;100174.87;;;7.39;50.32
77482;BME280;66582;43.004;-75.010;2023-03-23T07:06:32;100172.06;;;7.34;50.69
77482;BME280;66582;43.004;-75.010;2023-03-23T07:09:00;100177.58;;;7.18;51.87
77482;BME280;66582;43.004;-75.010;2023-03-23T07:11:23;100175.34;;;6.87;52.43
77482;BME280;66582;43.004;-75.010;2023-03-23T07:13:50;100169.56;;;6.22;53.32
77482;BME280;66582;43.004;-75.010;2023-03-23T07:16:14;100172.15;;;6.00;52.70
77482;BME280;66582;43.004;-75.010;2023-03-23T07:18:39;100154.07;;;7.74;50.98
77482;BME280;66582;43.004;-75.010;2023-03-23T07:21:05;100164.35;;;6.51;51.14
77482;BME280;66582;43.004;-75.010;2023-03-23T07:23:30;100156.83;;;6.33;53.35
77482;BME280;66582;43.004;-75.010;2023-03-23T07:25:55;100141.81;;;7.14;50.31
77482;BME280;66582;43.004;-75.010;2023-03-23T07:28:20;100149.70;;;6.36;53.12
77482;BME280;66582;43.004;-75.010;2023-03-23T07:30:46;100159.01;;;6.46;53.05
77482;BME280;66582;43.004;-75.010;2023-03-23T07:33:11;100164.27;;;5.82;55.19
77482;BME280;66582;43.004;-75.010;2023-03-23T07:35:36;100156.54;;;6.34;52.51
77482;BME280;66582;43.004;-75.010;2023-03-23T07:38:02;100154.62;;;6.19;52.81
77482;BME280;66582;43.004;-75.010;2023-03-23T07:40:27;100144.26;;;6.57;51.12
77482;BME280;66582;43.004;-75.010;2023-03-23T07:42:55;100145.37;;;6.60;52.71
77482;BME280;66582;43.004;-75.010;2023-03-23T07:45:18;100139.93;;;5.77;53.68
77482;BME280;66582;43.004;-75.010;2023-03-23T07:47:43;100124.28;;;6.31;52.59
77482;BME280;66582;43.004;-75.010;2023-03-23T07:50:10;100137.25;;;5.62;55.53
77482;BME280;66582;43.004;-75.010;2023-03-23T07:52:35;100130.90;;;6.35;53.66
77482;BME280;66582;43.004;-75.010;2023-03-23T07:54:59;100124.67;;;6.82;50.53
77482;BME280;66582;43.004;-75.010;2023-03-23T07:57:25;100126.23;;;4.33;56.53
77482;BME280;66582;43.004;-75.010;2023-03-23T07:59:50;100127.73;;;4.69;57.52
77482;BME280;66582;43.004;-75.010;2023-03-23T08:02:15;100122.33;;;6.88;51.98
77482;BME280;66582;43.004;-75.010;2023-03-23T08:04:41;100127.36;;;5.99;53.13
77482;BME280;66582;43.004;-75.010;2023-03-23T08:07:06;100132.41;;;5.14;54.55
77482;BME280;66582;43.004;-75.010;2023-03-23T08:09:32;100121.20;;;5.86;54.06
77482;BME280;66582;43.004;-75.010;2023-03-23T08:11:57;100116.49;;;4.86;56.10
77482;BME280;66582;43.004;-75.010;2023-03-23T08:14:22;100113.29;;;5.82;55.07
77482;BME280;66582;43.004;-75.010;2023-03-23T08:16:48;100112.60;;;4.96;56.56
77482;BME280;66582;43.004;-75.010;2023-03-23T08:19:13;100110.72;;;4.88;56.99
77482;BME280;66582;43.004;-75.010;2023-03-23T08:21:39;100096.83;;;5.17;55.25
77482;BME280;66582;43.004;-75.010;2023-03-23T08:24:05;100093.86;;;6.45;51.73
77482;BME280;66582;43.004;-75.010;2023-03-23T08:26:29;100094.17;;;4.53;56.80
77482;BME280;66582;43.004;-75.010;2023-03-23T08:28:55;100096.38;;;4.45;58.26
77482;BME280;66582;43.004;-75.010;2023-03-23T08:31:21;100093.49;;;5.84;55.15
77482;BME280;66582;43.004;-75.010;2023-03-23T08:33:46;100090.91;;;6.07;53.56
77482;BME280;66582;43.004;-75.010;2023-03-23T08:36:12;100084.63;;;7.15;52.32
77482;BME280;66582;43.004;-75.010;2023-03-23T08:38:37;100083.88;;;6.54;50.60
77482;BME280;66582;43.004;-75.010;2023-03-23T08:41:05;100099.63;;;6.78;52.23
77482;BME280;66582;43.004;-75.010;2023-03-23T08:43:27;100102.07;;;7.14;50.38
77482;BME280;66582;43.004;-75.010;2023-03-23T08:45:54;100090.38;;;7.73;48.97
77482;BME280;66582;43.004;-75.010;2023-03-23T08:48:20;100078.84;;;8.51;47.31
77482;BME280;66582;43.004;-75.010;2023-03-23T08:50:44;100075.75;;;7.26;50.03
77482;BME280;66582;43.004;-75.010;2023-03-23T08:53:09;100080.60;;;6.25;52.45
77482;BME280;66582;43.004;-75.010;2023-03-23T08:55:34;100070.57;;;5.69;54.82
77482;BME280;66582;43.004;-75.010;2023-03-23T08:58:00;100065.03;;;6.38;52.71
77482;BME280;66582;43.004;-75.010;2023-03-23T09:00:25;100059.31;;;6.44;51.62
77482;BME280;66582;43.004;-75.010;2023-03-23T09:02:53;100057.78;;;5.08;54.03
77482;BME280;66582;43.004;-75.010;2023-03-23T09:05:18;100046.43;;;6.28;53.54
77482;BME280;66582;43.004;-75.010;2023-03-23T09:07:47;100045.13;;;5.17;56.64
77482;BME280;66582;43.004;-75.010;2023-03-23T09:10:08;100034.13;;;6.31;53.77
77482;BME280;66582;43.004;-75.010;2023-03-23T09:12:32;100023.71;;;7.94;49.36
77482;BME280;66582;43.004;-75.010;2023-03-23T09:14:57;100020.35;;;6.44;51.72
77482;BME280;66582;43.004;-75.010;2023-03-23T09:17:24;100020.19;;;6.99;50.83
77482;BME280;66582;43.004;-75.010;2023-03-23T09:19:48;100009.86;;;8.18;48.41
77482;BME280;66582;43.004;-75.010;2023-03-23T09:22:13;100016.05;;;6.07;53.32
77482;BME280;66582;43.004;-75.010;2023-03-23T09:24:39;100025.05;;;4.25;59.98
77482;BME280;66582;43.004;-75.010;2023-03-23T09:27:05;100014.91;;;5.00;60.46
77482;BME280;66582;43.004;-75.010;2023-03-23T09:29:30;100024.16;;;3.03;67.86
77482;BME280;66582;43.004;-75.010;2023-03-23T09:31:56;100013.09;;;5.28;60.58
77482;BME280;66582;43.004;-75.010;2023-03-23T09:34:22;100006.28;;;6.87;54.54
77482;BME280;66582;43.004;-75.010;2023-03-23T09:36:47;100014.04;;;3.68;63.96
77482;BME280;66582;43.004;-75.010;2023-03-23T09:39:12;100007.65;;;6.01;57.60
77482;BME280;66582;43.004;-75.010;2023-03-23T09:41:48;100005.65;;;6.29;55.29
77482;BME280;66582;43.004;-75.010;2023-03-23T09:44:07;100017.92;;;5.61;57.23
77482;BME280;66582;43.004;-75.010;2023-03-23T09:46:41;100020.33;;;5.98;55.18
77482;BME280;66582;43.004;-75.010;2023-03-23T09:48:55;100022.84;;;8.45;49.98
77482;BME280;66582;43.004;-75.010;2023-03-23T09:51:29;100027.24;;;9.00;48.26
77482;BME280;66582;43.004;-75.010;2023-03-23T09:53:48;100035.56;;;8.94;47.32
77482;BME280;66582;43.004;-75.010;2023-03-23T09:56:11;100045.47;;;8.33;50.22
77482;BME280;66582;43.004;-75.010;2023-03-23T09:58:38;100038.05;;;7.02;52.16
77482;BME280;66582;43.004;-75.010;2023-03-23T10:01:04;100029.45;;;8.04;49.37
77482;BME280;66582;43.004;-75.010;2023-03-23T10:03:28;100032.70;;;7.90;50.12
77482;BME280;66582;43.004;-75.010;2023-03-23T10:05:52;100032.65;;;8.85;48.19
77482;BME280;66582;43.004;-75.010;2023-03-23T10:08:18;100023.55;;;8.37;47.97
77482;BME280;66582;43.004;-75.010;2023-03-23T10:10:48;100017.76;;;8.20;47.88
77482;BME280;66582;43.004;-75.010;2023-03-23T10:13:13;100013.75;;;8.91;47.16
77482;BME280;66582;43.004;-75.010;2023-03-23T10:15:34;100009.26;;;8.33;47.95
77482;BME280;66582;43.004;-75.010;2023-03-23T10:18:00;100003.97;;;4.82;58.49
77482;BME280;66582;43.004;-75.010;2023-03-23T10:20:33;99984.48;;;6.87;53.65
77482;BME280;66582;43.004;-75.010;2023-03-23T10:22:52;99978.42;;;6.14;55.80
77482;BME280;66582;43.004;-75.010;2023-03-23T10:25:19;99968.97;;;6.73;55.03
77482;BME280;66582;43.004;-75.010;2023-03-23T10:27:44;99973.90;;;5.44;57.55
77482;BME280;66582;43.004;-75.010;2023-03-23T10:30:15;99969.16;;;5.19;58.65
77482;BME280;66582;43.004;-75.010;2023-03-23T10:32:41;99957.53;;;4.78;59.74
77482;BME280;66582;43.004;-75.010;2023-03-23T10:34:58;99955.07;;;6.53;54.74
77482;BME280;66582;43.004;-75.010;2023-03-23T10:37:24;99957.15;;;7.96;50.96
77482;BME280;66582;43.004;-75.010;2023-03-23T10:39:51;99958.42;;;7.87;50.51
77482;BME280;66582;43.004;-75.010;2023-03-23T10:42:20;99946.73;;;6.44;53.70
77482;BME280;66582;43.004;-75.010;2023-03-23T10:44:37;99940.48;;;7.44;51.27
77482;BME280;66582;43.004;-75.010;2023-03-23T10:47:05;99947.80;;;5.79;54.16
77482;BME280;66582;43.004;-75.010;2023-03-23T10:49:33;99954.52;;;5.45;55.56
77482;BME280;66582;43.004;-75.010;2023-03-23T10:52:00;99957.86;;;4.62;58.51
77482;BME280;66582;43.004;-75.010;2023-03-23T10:54:26;99951.75;;;4.28;60.81
77482;BME280;66582;43.004;-75.010;2023-03-23T10:56:45;99941.50;;;4.52;58.90
77482;BME280;66582;43.004;-75.010;2023-03-23T10:59:13;99935.08;;;4.74;59.94
77482;BME280;66582;43.004;-75.010;2023-03-23T11:01:36;99926.05;;;4.08;58.51
77482;BME280;66582;43.004;-75.010;2023-03-23T11:04:02;99925.92;;;4.95;57.93
77482;BME280;66582;43.004;-75.010;2023-03-23T11:06:29;99922.34;;;4.67;57.49
77482;BME280;66582;43.004;-75.010;2023-03-23T11:08:55;99925.56;;;5.01;57.56
77482;BME280;66582;43.004;-75.010;2023-03-23T11:11:19;99928.66;;;5.28;55.31
77482;BME280;66582;43.004;-75.010;2023-03-23T11:13:44;99919.93;;;5.83;55.01
77482;BME280;66582;43.004;-75.010;2023-03-23T11:16:08;99912.99;;;6.25;52.36
77482;BME280;66582;43.004;-75.010;2023-03-23T11:18:37;99908.58;;;5.15;55.51
77482;BME280;66582;43.004;-75.010;2023-03-23T11:20:59;99900.36;;;6.63;52.86
77482;BME280;66582;43.004;-75.010;2023-03-23T11:23:27;99898.71;;;6.92;51.52
77482;BME280;66582;43.004;-75.010;2023-03-23T11:25:55;99889.93;;;7.69;48.37
77482;BME280;66582;43.004;-75.010;2023-03-23T11:28:15;99893.61;;;7.47;49.73
77482;BME280;66582;43.004;-75.010;2023-03-23T11:30:41;99882.92;;;6.90;51.08
77482;BME280;66582;43.004;-75.010;2023-03-23T11:33:07;99871.10;;;8.78;47.90
77482;BME280;66582;43.004;-75.010;2023-03-23T11:35:31;99881.42;;;9.39;45.66
77482;BME280;66582;43.004;-75.010;2023-03-23T11:37:58;99889.81;;;7.82;47.97
77482;BME280;66582;43.004;-75.010;2023-03-23T11:40:23;99899.45;;;7.82;49.38
77482;BME280;66582;43.004;-75.010;2023-03-23T11:42:49;99906.75;;;6.45;51.51
77482;BME280;66582;43.004;-75.010;2023-03-23T11:45:17;99910.25;;;5.09;56.06
77482;BME280;66582;43.004;-75.010;2023-03-23T11:47:42;99903.20;;;3.87;59.55
77482;BME280;66582;43.004;-75.010;2023-03-23T11:50:10;99898.96;;;4.86;59.31
77482;BME280;66582;43.004;-75.010;2023-03-23T11:52:36;99886.08;;;5.65;56.81
77482;BME280;66582;43.004;-75.010;2023-03-23T11:54:58;99895.10;;;5.98;57.72
77482;BME280;66582;43.004;-75.010;2023-03-23T11:57:20;99879.11;;;7.09;55.17
77482;BME280;66582;43.004;-75.010;2023-03-23T11:59:46;99886.62;;;5.46;57.60
77482;BME280;66582;43.004;-75.010;2023-03-23T12:02:24;99886.74;;;5.43;58.35
77482;BME280;66582;43.004;-75.010;2023-03-23T12:04:45;99869.77;;;7.29;54.94
77482;BME280;66582;43.004;-75.010;2023-03-23T12:09:38;99878.20;;;5.87;56.78
77482;BME280;66582;43.004;-75.010;2023-03-23T12:12:03;99877.25;;;6.95;55.44
77482;BME280;66582;43.004;-75.010;2023-03-23T12:14:24;99872.39;;;6.99;53.68
77482;BME280;66582;43.004;-75.010;2023-03-23T12:16:54;99868.39;;;7.90;52.80
77482;BME280;66582;43.004;-75.010;2023-03-23T12:19:16;99857.30;;;7.26;51.84
77482;BME280;66582;43.004;-75.010;2023-03-23T12:21:42;99857.51;;;7.83;51.35
77482;BME280;66582;43.004;-75.010;2023-03-23T12:24:08;99865.55;;;7.52;51.84
77482;BME280;66582;43.004;-75.010;2023-03-23T12:26:30;99861.17;;;7.18;52.47
77482;BME280;66582;43.004;-75.010;2023-03-23T12:29:07;99858.64;;;6.74;52.11
77482;BME280;66582;43.004;-75.010;2023-03-23T12:31:24;99858.62;;;5.38;56.77
77482;BME280;66582;43.004;-75.010;2023-03-23T12:33:52;99840.71;;;6.91;55.24
77482;BME280;66582;43.004;-75.010;2023-03-23T12:36:15;99828.42;;;5.76;56.13
77482;BME280;66582;43.004;-75.010;2023-03-23T12:38:48;99831.13;;;6.04;56.32
77482;BME280;66582;43.004;-75.010;2023-03-23T12:41:06;99822.78;;;7.66;52.23